Terminal Aerodrome Forecast
Issued by NWS

Home | Current Version | Previous Version | Text Only | Print | Product List | Glossary On
Versions: 1 2 3 4 5 6 7 8 9 10 11 12
223
FTUS46 KSEW 221120
TAFHQM
TAF
KHQM 221120Z 2212/2312 21012KT P6SM VCSH SCT030 BKN070
      TEMPO 2212/2216 BKN030 BKN070
     FM221600 21012KT P6SM VCSH SCT080
     FM230600 10005KT P6SM BKN050=

USA.gov is the U.S. government's official web portal to all federal, state and local government web resources and services.